Time;durP1;ratioP1;P1;durP2;ratioP2;P2;SDS_P1;SDS_P2;PMS_P1;PMS_P2;Temp;Humidity;BMP_temperature;BMP_pressure;BME280_temperature;BME280_humidity;BME280_pressure;Samples;Min_cycle;Max_cycle;Signal;HPM_P1;HPM_P2
2022/05/27 00:04:15;;;;;;;9.07;4.03;;;;;;;15.19;76.29;101821.28;10397922;28;20049;-80
2022/05/27 00:09:17;;;;;;;6.82;4.40;;;;;;;15.02;76.99;101807.06;10429866;28;20504;-80
2022/05/27 00:14:19;;;;;;;11.65;4.57;;;;;;;15.03;77.30;101812.28;10420159;28;20041;-81
2022/05/27 00:19:21;;;;;;;10.75;4.15;;;;;;;14.95;77.78;101798.28;10419242;28;20052;-81
2022/05/27 00:24:23;;;;;;;9.95;4.40;;;;;;;14.86;78.30;101783.34;10417780;28;20053;-80
2022/05/27 00:29:25;;;;;;;9.65;4.55;;;;;;;14.97;78.21;101786.19;10413896;28;20084;-79
2022/05/27 00:34:47;;;;;;;9.20;4.50;;;;;;;15.09;77.42;101782.13;10418148;28;20059;-80
2022/05/27 00:39:48;;;;;;;8.65;4.13;;;;;;;15.08;77.55;101789.00;10410040;28;20496;-80
2022/05/27 00:44:52;;;;;;;6.70;3.78;;;;;;;15.08;77.21;101789.00;10421661;28;20385;-80
2022/05/27 00:50:01;;;;;;;11.13;4.30;;;;;;;14.93;78.80;101799.94;10419447;28;20053;-80
2022/05/27 00:55:06;;;;;;;12.65;5.07;;;;;;;14.68;80.67;101804.56;10419448;28;20443;-80
2022/05/27 01:00:12;;;;;;;11.40;4.57;;;;;;;14.48;81.69;101823.94;10414677;28;20048;-81
2022/05/27 01:05:18;;;;;;;10.30;4.13;;;;;;;14.36;83.50;101842.66;10387030;28;20053;-79
2022/05/27 01:10:21;;;;;;;8.98;4.38;;;;;;;14.34;84.75;101833.94;10414748;28;20148;-82
2022/05/27 01:15:38;;;;;;;6.75;3.25;;;;;;;14.07;84.93;101824.63;10416703;28;20068;-80
2022/05/27 01:21:21;;;;;;;8.65;3.42;;;;;;;14.18;85.56;101812.84;10398721;28;20057;-81
2022/05/27 01:26:29;;;;;;;6.03;3.20;;;;;;;14.14;85.03;101815.31;10419910;28;20562;-80
2022/05/27 01:31:43;;;;;;;7.57;2.65;;;;;;;14.11;84.99;101817.00;10428991;28;20049;-81
2022/05/27 01:36:59;;;;;;;5.07;2.72;;;;;;;14.16;85.27;101824.88;10427008;28;20095;-83
2022/05/27 01:42:14;;;;;;;5.32;2.80;;;;;;;14.00;85.61;101833.09;10414820;28;20052;-82
2022/05/27 01:47:31;;;;;;;;;;;;;;;14.05;85.36;101826.31;10417396;28;20491;-82
2022/05/27 01:52:52;;;;;;;3.33;1.85;;;;;;;13.95;84.94;101836.44;10416808;28;19925;-83
2022/05/27 01:58:10;;;;;;;3.33;2.08;;;;;;;13.89;84.78;101846.63;10401422;28;20045;-83
2022/05/27 02:03:21;;;;;;;3.67;1.52;;;;;;;13.76;84.88;101849.72;10399232;28;20365;-83
2022/05/27 02:08:38;;;;;;;3.30;1.95;;;;;;;13.76;84.67;101839.34;10406672;28;20462;-83
2022/05/27 02:13:51;;;;;;;7.18;2.13;;;;;;;13.81;84.61;101827.44;10389246;28;20041;-84
2022/05/27 02:19:02;;;;;;;4.03;1.75;;;;;;;13.82;84.47;101834.34;10398542;28;20107;-83
2022/05/27 02:24:18;;;;;;;4.50;2.17;;;;;;;13.77;85.04;101835.94;10401708;28;20045;-84
2022/05/27 02:29:28;;;;;;;4.32;2.17;;;;;;;13.89;84.87;101838.84;10416788;28;20272;-82
2022/05/27 02:35:08;;;;;;;6.65;2.50;;;;;;;14.00;84.51;101839.13;10414234;28;20477;-81
2022/05/27 02:40:15;;;;;;;5.32;2.60;;;;;;;13.93;84.35;101838.09;10407567;28;20049;-81
2022/05/27 02:45:48;;;;;;;6.90;2.95;;;;;;;14.01;84.36;101819.31;10411955;28;20476;-81
2022/05/27 02:51:24;;;;;;;8.23;3.55;;;;;;;13.85;85.13;101829.25;10393350;28;20053;-82
2022/05/27 02:56:31;;;;;;;8.10;3.65;;;;;;;13.86;85.07;101840.47;10410543;28;20056;-81
2022/05/27 03:01:32;;;;;;;6.68;3.70;;;;;;;13.79;85.10;101839.44;10411658;28;20057;-83
2022/05/27 03:06:53;;;;;;;5.18;3.28;;;;;;;13.76;85.04;101842.84;10386127;28;20049;-82
2022/05/27 03:12:05;;;;;;;11.13;3.60;;;;;;;13.72;84.95;101830.63;10410715;28;20385;-82
2022/05/27 03:17:35;;;;;;;9.77;3.80;;;;;;;13.63;84.80;101839.00;10410441;28;20050;-82
2022/05/27 03:22:58;;;;;;;8.25;3.72;;;;;;;13.48;85.10;101836.00;10413950;28;20107;-84
2022/05/27 03:28:17;;;;;;;8.20;3.55;;;;;;;13.54;84.89;101832.72;10409602;28;20050;-81
2022/05/27 03:33:45;;;;;;;7.50;3.55;;;;;;;13.56;84.79;101829.31;10411567;28;20049;-82
2022/05/27 03:39:02;;;;;;;9.48;4.35;;;;;;;13.55;84.84;101830.16;10407657;28;20150;-81
2022/05/27 03:44:05;;;;;;;10.15;4.53;;;;;;;13.69;84.92;101837.41;10354326;28;20050;-81
2022/05/27 03:49:07;;;;;;;11.70;4.80;;;;;;;13.68;84.55;101835.66;10409998;28;20041;-81
2022/05/27 03:54:11;;;;;;;10.35;4.70;;;;;;;13.70;85.11;101841.78;10409637;28;20116;-82
2022/05/27 03:59:19;;;;;;;6.97;4.60;;;;;;;13.67;85.28;101844.25;10410034;28;20042;-81
2022/05/27 04:04:23;;;;;;;10.55;5.22;;;;;;;13.66;85.50;101847.72;10406852;28;20045;-84
2022/05/27 04:09:26;;;;;;;14.07;5.32;;;;;;;13.74;85.68;101848.78;10413444;28;20049;-83
2022/05/27 04:14:27;;;;;;;8.35;5.05;;;;;;;13.71;84.90;101856.47;10420047;28;20065;-83
2022/05/27 04:19:29;;;;;;;13.38;5.65;;;;;;;13.70;85.13;101854.72;10419490;28;20060;-82
2022/05/27 04:24:33;;;;;;;12.57;5.22;;;;;;;13.66;85.38;101858.94;10424543;28;20501;-84
2022/05/27 04:29:47;;;;;;;10.30;5.15;;;;;;;13.61;85.18;101856.22;10419322;28;20056;-83
2022/05/27 04:34:49;;;;;;;12.05;5.43;;;;;;;13.57;84.81;101854.38;10418841;28;20061;-84
2022/05/27 04:39:52;;;;;;;10.60;4.75;;;;;;;13.66;84.99;101858.94;10402376;28;20057;-85
2022/05/27 04:44:54;;;;;;;15.60;5.50;;;;;;;13.62;85.14;101857.09;10403166;28;20172;-83
2022/05/27 04:49:58;;;;;;;14.40;4.88;;;;;;;13.52;84.68;101847.31;10402346;28;20053;-83
2022/05/27 04:55:02;;;;;;;10.73;4.57;;;;;;;13.63;84.46;101859.72;10419498;28;20489;-82
2022/05/27 05:00:25;;;;;;;10.35;4.32;;;;;;;13.61;84.12;101860.53;10401408;28;20076;-83
2022/05/27 05:05:29;;;;;;;9.45;3.67;;;;;;;13.59;83.25;101868.22;10387930;28;20054;-83
2022/05/27 05:10:31;;;;;;;10.73;3.75;;;;;;;13.76;82.69;101860.97;10417634;28;20123;-82
2022/05/27 05:15:34;;;;;;;11.55;3.53;;;;;;;13.78;82.27;101868.78;10417107;28;20045;-83
2022/05/27 05:20:39;;;;;;;8.13;3.58;;;;;;;13.76;82.00;101875.59;10416509;28;20485;-83
2022/05/27 05:25:41;;;;;;;14.45;3.72;;;;;;;13.82;80.70;101870.59;10420664;28;20060;-83
2022/05/27 05:30:42;;;;;;;18.08;3.50;;;;;;;13.94;80.83;101865.78;10418305;28;20049;-84
2022/05/27 05:35:46;;;;;;;11.00;2.95;;;;;;;13.93;79.11;101869.19;10416558;28;20045;-84
2022/05/27 05:40:48;;;;;;;9.35;2.90;;;;;;;14.00;78.25;101882.31;10417281;28;20041;-84
2022/05/27 05:45:49;;;;;;;13.20;2.80;;;;;;;13.98;76.75;101881.38;10416548;28;20041;-83
2022/05/27 05:50:51;;;;;;;7.55;2.42;;;;;;;14.17;76.11;101882.75;10417154;28;20054;-85
2022/05/27 05:55:53;;;;;;;9.95;2.80;;;;;;;14.26;75.90;101888.19;10415966;28;20049;-84
2022/05/27 06:00:54;;;;;;;7.18;2.13;;;;;;;14.37;75.74;101885.88;10404956;28;20059;-85
2022/05/27 06:05:57;;;;;;;11.88;2.58;;;;;;;14.23;74.92;101894.19;10401216;28;20476;-84
2022/05/27 06:10:59;;;;;;;5.85;2.35;;;;;;;14.53;75.13;101893.22;10398515;28;20103;-84
2022/05/27 06:16:00;;;;;;;7.82;2.83;;;;;;;14.59;75.15;101898.56;10416185;28;20111;-84
2022/05/27 06:21:05;;;;;;;9.55;2.20;;;;;;;14.62;74.36;101902.09;10402463;28;20056;-85
2022/05/27 06:26:09;;;;;;;6.80;2.20;;;;;;;15.04;74.15;101907.44;10417283;28;20100;-84
2022/05/27 06:36:33;;;;;;;7.22;2.05;;;;;;;15.08;71.36;101913.59;10429294;28;20103;-82
2022/05/27 06:41:35;;;;;;;14.35;2.38;;;;;;;14.97;69.83;101920.25;10407198;28;20067;-84
2022/05/27 06:46:37;;;;;;;8.45;2.20;;;;;;;15.31;70.08;101915.84;10391247;28;20046;-83
2022/05/27 06:51:43;;;;;;;7.32;2.25;;;;;;;15.53;69.57;101928.44;10416197;28;20116;-84
2022/05/27 06:56:45;;;;;;;7.15;2.15;;;;;;;15.86;68.09;101932.66;10414215;28;20048;-84
2022/05/27 07:01:47;;;;;;;12.25;2.10;;;;;;;15.72;68.61;101931.47;10414076;28;20453;-82
2022/05/27 07:06:49;;;;;;;10.90;2.40;;;;;;;15.89;66.34;101925.78;10410975;28;20128;-83
2022/05/27 07:11:55;;;;;;;6.80;2.42;;;;;;;16.16;64.88;101921.09;10400744;28;20057;-86
2022/05/27 07:16:56;;;;;;;9.57;2.17;;;;;;;15.46;63.41;101921.38;10413007;28;20495;-85
2022/05/27 07:22:11;;;;;;;4.82;1.67;;;;;;;15.27;61.50;101933.06;10393068;28;20049;-84
2022/05/27 07:27:12;;;;;;;5.25;1.70;;;;;;;14.96;61.46;101934.06;10405580;28;20063;-84
2022/05/27 07:32:14;;;;;;;8.55;1.67;;;;;;;14.70;56.75;101949.88;10412315;28;20041;-84
2022/05/27 07:37:16;;;;;;;7.70;2.03;;;;;;;15.22;55.68;101948.56;10414415;28;20502;-85
2022/05/27 07:42:17;;;;;;;9.82;1.85;;;;;;;15.53;52.90;101944.03;10406643;28;20046;-85
2022/05/27 07:47:19;;;;;;;7.35;2.05;;;;;;;15.99;53.74;101958.88;10414705;28;20045;-87
2022/05/27 07:52:22;;;;;;;7.28;1.90;;;;;;;15.87;52.19;101964.69;10448622;28;20034;-86
2022/05/27 07:57:24;;;;;;;7.05;1.80;;;;;;;16.15;52.02;101960.94;10456222;28;20102;-85
2022/05/27 08:02:26;;;;;;;11.82;2.13;;;;;;;16.34;52.23;101961.31;10413937;28;20045;-86
2022/05/27 08:07:28;;;;;;;10.55;2.85;;;;;;;16.53;53.50;101959.03;10413872;28;20057;-86
2022/05/27 08:12:30;;;;;;;13.52;2.30;;;;;;;16.09;51.58;101960.84;10412795;28;20635;-85
2022/05/27 08:17:31;;;;;;;12.88;2.13;;;;;;;16.26;52.80;101970.69;10412408;28;20053;-85
2022/05/27 08:22:33;;;;;;;11.02;2.15;;;;;;;16.78;52.19;101958.63;10402710;28;20050;-87
2022/05/27 08:27:34;;;;;;;9.05;2.20;;;;;;;16.93;51.72;101962.38;10403256;28;20033;-84
2022/05/27 08:32:36;;;;;;;8.85;2.22;;;;;;;17.42;53.54;101964.88;10406829;28;20496;-83
2022/05/27 08:43:11;;;;;;;8.02;2.33;;;;;;;16.50;51.83;101973.75;10427208;28;20088;-85
2022/05/27 08:48:14;;;;;;;8.85;2.20;;;;;;;16.06;53.13;101976.34;10411611;28;20054;-85
2022/05/27 08:53:37;;;;;;;13.75;2.70;;;;;;;16.38;53.36;101977.84;10411802;28;20049;-83
2022/05/27 08:59:26;;;;;;;11.20;2.15;;;;;;;16.45;52.49;101988.38;10418004;28;20053;-81
2022/05/27 09:04:40;;;;;;;9.80;2.50;;;;;;;17.00;52.41;101979.84;10423758;28;20559;-83
2022/05/27 09:09:42;;;;;;;7.45;2.15;;;;;;;17.57;51.13;101975.47;10421031;28;20045;-84
2022/05/27 09:14:49;;;;;;;9.25;2.58;;;;;;;17.34;48.42;101982.13;10420274;28;20060;-82
2022/05/27 09:20:02;;;;;;;12.00;2.03;;;;;;;16.83;51.30;101976.03;10420955;28;20401;-86
2022/05/27 09:25:10;;;;;;;7.53;1.85;;;;;;;16.91;50.12;101974.44;10453255;28;20570;-85
2022/05/27 09:30:15;;;;;;;10.68;2.15;;;;;;;16.77;51.12;101967.28;10420907;28;20053;-83
2022/05/27 09:35:30;;;;;;;8.10;2.20;;;;;;;16.40;51.32;101979.63;10418616;28;20060;-84
2022/05/27 09:40:54;;;;;;;8.88;2.55;;;;;;;17.75;49.89;101980.09;10420587;28;20076;-84
2022/05/27 09:45:59;;;;;;;13.88;2.38;;;;;;;16.04;53.79;101993.66;10417351;28;20053;-85
2022/05/27 09:51:07;;;;;;;7.47;2.10;;;;;;;16.41;53.31;101985.69;10417891;28;20539;-85
2022/05/27 09:56:12;;;;;;;9.48;2.50;;;;;;;18.29;54.66;101974.66;10416135;28;20041;-85
2022/05/27 10:01:25;;;;;;;10.15;2.47;;;;;;;18.02;52.64;101980.47;10415753;28;20103;-84
2022/05/27 10:06:32;;;;;;;7.93;2.20;;;;;;;17.09;48.58;101972.16;10417382;28;20037;-83
2022/05/27 10:11:46;;;;;;;10.75;2.10;;;;;;;17.50;44.42;101985.81;10415725;28;20049;-82
2022/05/27 10:17:08;;;;;;;10.40;1.90;;;;;;;17.73;46.26;101984.41;10411494;28;20041;-84
2022/05/27 10:22:29;;;;;;;7.97;2.10;;;;;;;16.97;48.58;101987.59;10414974;28;20408;-85
2022/05/27 10:27:37;;;;;;;10.40;2.80;;;;;;;17.12;48.67;101985.25;10412862;28;20508;-84
2022/05/27 10:32:43;;;;;;;8.93;2.47;;;;;;;16.36;50.25;102000.34;10418389;28;20107;-85
2022/05/27 10:38:27;;;;;;;9.93;2.17;;;;;;;17.26;45.26;101987.19;10419313;28;20110;-84
2022/05/27 10:43:37;;;;;;;9.38;2.20;;;;;;;17.57;43.52;101987.66;10414936;28;20061;-83
2022/05/27 10:49:13;;;;;;;6.63;1.80;;;;;;;18.12;41.51;101982.31;10417429;28;20567;-84
2022/05/27 10:54:38;;;;;;;4.25;1.50;;;;;;;18.27;40.36;101985.94;10415025;28;20053;-81
2022/05/27 11:05:36;;;;;;;15.57;3.22;;;;;;;17.87;44.79;101981.97;10416634;28;20111;-83
2022/05/27 11:10:47;;;;;;;9.15;1.90;;;;;;;17.49;41.56;101991.88;10417925;28;20048;-83
2022/05/27 11:16:13;;;;;;;7.90;1.90;;;;;;;18.06;41.20;101996.13;10417458;28;20045;-82
2022/05/27 11:21:40;;;;;;;8.00;1.67;;;;;;;17.63;37.82;102003.38;10426127;28;20045;-83
2022/05/27 11:27:02;;;;;;;8.05;2.10;;;;;;;18.17;38.84;101998.88;10402439;28;20045;-83
2022/05/27 11:32:40;;;;;;;10.82;2.08;;;;;;;18.30;39.13;102004.25;10395979;28;20049;-82
2022/05/27 11:38:15;;;;;;;9.68;2.03;;;;;;;18.08;38.32;102002.25;10416170;28;20045;-84
2022/05/27 11:43:24;;;;;;;6.68;1.40;;;;;;;17.96;37.96;102004.72;10413339;28;20053;-82
2022/05/27 11:48:46;;;;;;;8.05;1.65;;;;;;;18.16;39.71;102004.97;10415751;28;20045;-84
2022/05/27 11:54:20;;;;;;;6.88;1.77;;;;;;;18.44;39.30;102007.88;10416480;28;20091;-83
2022/05/27 11:59:25;;;;;;;8.85;2.60;;;;;;;17.49;41.38;102004.91;10412859;28;20062;-84
2022/05/27 12:04:38;;;;;;;9.35;1.52;;;;;;;17.94;38.79;102003.78;10416892;28;20103;-84
2022/05/27 12:09:45;;;;;;;11.15;2.05;;;;;;;18.69;39.45;101990.75;10415895;28;20095;-85
2022/05/27 12:14:54;;;;;;;10.02;1.85;;;;;;;17.91;42.57;102003.72;10417876;28;20049;-84
2022/05/27 12:19:59;;;;;;;7.63;1.83;;;;;;;18.04;38.29;102005.69;10415945;28;20068;-83
2022/05/27 12:25:04;;;;;;;9.85;1.98;;;;;;;18.48;39.23;102011.41;10417898;28;20046;-82
2022/05/27 12:30:10;;;;;;;5.80;1.50;;;;;;;18.03;40.46;102005.66;10417831;28;20052;-82
2022/05/27 12:36:00;;;;;;;7.53;1.67;;;;;;;17.97;36.71;102011.69;10425434;28;20049;-83
2022/05/27 12:41:10;;;;;;;8.10;1.60;;;;;;;17.56;40.24;102022.38;10311655;28;20561;-83
2022/05/27 12:46:39;;;;;;;7.63;1.95;;;;;;;17.72;40.10;102024.34;10385807;28;20421;-83
2022/05/27 12:51:45;;;;;;;7.40;1.92;;;;;;;17.83;38.11;102015.81;10397144;28;20049;-84
2022/05/27 13:02:19;;;;;;;8.15;1.90;;;;;;;18.18;37.80;102028.44;10415988;28;20065;-84
2022/05/27 13:07:44;;;;;;;9.00;1.98;;;;;;;17.96;37.66;102036.00;10419455;28;20041;-85
2022/05/27 13:13:01;;;;;;;8.70;1.80;;;;;;;18.03;39.86;102030.00;10422601;28;20579;-84
2022/05/27 13:18:27;;;;;;;8.38;1.75;;;;;;;18.02;40.04;102028.25;10418939;28;20053;-83
2022/05/27 13:23:31;;;;;;;7.43;1.90;;;;;;;16.94;42.92;102043.09;10416540;28;20451;-84
2022/05/27 13:28:39;;;;;;;7.63;2.15;;;;;;;16.79;43.68;102034.97;10424310;28;20048;-84
2022/05/27 13:33:52;;;;;;;9.75;1.77;;;;;;;16.55;43.43;102032.78;10420980;28;20137;-82
2022/05/27 13:39:05;;;;;;;7.30;1.30;;;;;;;16.43;43.76;102052.50;10403866;28;20046;-81
2022/05/27 13:44:11;;;;;;;8.30;1.60;;;;;;;16.39;41.88;102047.19;10421798;28;20408;-82
2022/05/27 13:49:28;;;;;;;9.07;1.67;;;;;;;17.36;42.94;102051.59;10430780;28;20099;-83
2022/05/27 13:54:36;;;;;;;10.45;1.90;;;;;;;17.62;43.24;102037.22;10426271;28;20056;-84
2022/05/27 13:59:53;;;;;;;7.50;1.27;;;;;;;16.63;42.73;102062.44;10460506;28;20073;-83
2022/05/27 14:05:03;;;;;;;11.93;1.70;;;;;;;17.23;41.03;102047.06;10467566;28;20045;-85
2022/05/27 14:10:41;;;;;;;9.48;1.80;;;;;;;17.06;41.18;102054.56;10427181;28;20455;-84
2022/05/27 14:15:45;;;;;;;10.25;2.08;;;;;;;17.92;41.39;102055.03;10418710;28;20083;-84
2022/05/27 14:26:09;;;;;;;6.50;1.60;;;;;;;16.89;44.13;102072.44;10421525;28;20056;-85
2022/05/27 14:31:15;;;;;;;6.78;1.42;;;;;;;16.76;44.22;102069.63;10415431;28;20037;-83
2022/05/27 14:36:19;;;;;;;7.55;1.73;;;;;;;16.31;45.60;102075.66;10406962;28;20049;-84
2022/05/27 14:41:29;;;;;;;9.63;1.80;;;;;;;16.72;43.72;102080.81;10414858;28;20076;-84
2022/05/27 14:46:38;;;;;;;6.05;1.27;;;;;;;16.70;45.02;102092.03;10406884;28;20049;-84
2022/05/27 14:51:41;;;;;;;;;;;;;;;16.55;46.92;102098.69;10417754;28;20092;-84
2022/05/27 14:56:43;;;;;;;10.77;1.83;;;;;;;16.39;47.00;102089.72;10420384;28;19928;-83
2022/05/27 15:01:54;;;;;;;8.50;1.80;;;;;;;16.11;46.35;102094.31;10393595;28;20041;-82
2022/05/27 15:07:17;;;;;;;15.55;3.15;;;;;;;16.24;47.04;102089.38;10401294;28;20469;-83
2022/05/27 15:12:26;;;;;;;7.38;1.73;;;;;;;16.27;45.86;102089.47;10381636;28;20100;-83
2022/05/27 15:17:31;;;;;;;10.67;1.63;;;;;;;15.98;44.53;102087.06;10388046;28;20544;-83
2022/05/27 15:22:54;;;;;;;7.45;1.67;;;;;;;16.61;45.68;102090.16;10412151;28;20057;-83
2022/05/27 15:33:26;;;;;;;10.07;2.20;;;;;;;16.48;46.60;102079.50;10418473;28;20053;-84
2022/05/27 15:38:29;;;;;;;5.50;1.40;;;;;;;16.60;45.92;102093.59;10418021;28;20092;-83
2022/05/27 15:43:37;;;;;;;5.95;1.58;;;;;;;16.44;45.31;102095.88;10417314;28;20432;-84
2022/05/27 15:48:41;;;;;;;7.55;1.60;;;;;;;16.21;46.23;102094.50;10417867;28;20037;-83
2022/05/27 15:53:43;;;;;;;8.95;1.58;;;;;;;16.38;47.94;102093.16;10419954;28;20034;-83
2022/05/27 15:58:45;;;;;;;5.38;1.33;;;;;;;16.47;47.98;102087.25;10407308;28;20104;-84
2022/05/27 16:03:46;;;;;;;5.18;1.20;;;;;;;15.86;45.30;102101.56;10411287;28;20064;-83
2022/05/27 16:08:48;;;;;;;10.00;1.45;;;;;;;15.59;47.38;102103.47;10414503;28;20045;-84
2022/05/27 16:13:52;;;;;;;8.93;1.42;;;;;;;15.92;47.31;102097.34;10432455;28;20118;-82
2022/05/27 16:18:54;;;;;;;5.60;1.13;;;;;;;15.13;46.61;102109.25;10431020;28;20041;-84
2022/05/27 16:23:56;;;;;;;8.27;1.60;;;;;;;14.92;48.07;102112.16;10432460;28;20045;-84
2022/05/27 16:29:02;;;;;;;7.15;1.55;;;;;;;15.85;46.85;102099.81;10431165;28;20073;-84
2022/05/27 16:34:05;;;;;;;7.57;1.65;;;;;;;15.57;45.14;102110.34;10431692;28;20397;-84
2022/05/27 16:39:06;;;;;;;4.22;1.38;;;;;;;15.41;47.02;102116.91;10432702;28;20038;-82
2022/05/27 16:44:13;;;;;;;7.50;1.85;;;;;;;15.20;48.41;102125.84;10430338;28;20057;-84
2022/05/27 16:49:15;;;;;;;7.38;1.50;;;;;;;14.95;47.41;102119.13;10394648;28;20046;-82
2022/05/27 16:54:24;;;;;;;5.30;1.45;;;;;;;14.59;48.25;102125.91;10431231;28;20504;-82
2022/05/27 16:59:26;;;;;;;5.13;1.10;;;;;;;14.65;47.73;102125.19;10431077;28;20049;-82
2022/05/27 17:04:27;;;;;;;6.25;1.27;;;;;;;14.56;48.39;102129.28;10429992;28;20432;-82
2022/05/27 17:09:35;;;;;;;8.32;1.35;;;;;;;14.52;50.52;102123.97;10423084;28;20046;-82
2022/05/27 17:14:38;;;;;;;5.47;1.35;;;;;;;14.59;49.31;102131.09;10425571;28;20076;-82
2022/05/27 17:19:40;;;;;;;5.85;1.33;;;;;;;14.60;50.92;102118.16;10380882;28;20042;-83
2022/05/27 17:24:42;;;;;;;5.82;1.40;;;;;;;14.59;51.05;102131.97;10411762;28;20050;-81
2022/05/27 17:29:43;;;;;;;5.22;1.10;;;;;;;14.91;49.29;102134.63;10437925;28;20049;-83
2022/05/27 17:34:47;;;;;;;8.27;1.30;;;;;;;14.70;50.30;102127.13;10425249;28;20079;-83
2022/05/27 17:40:20;;;;;;;4.97;1.17;;;;;;;14.46;49.79;102129.84;10422918;28;20092;-83
2022/05/27 17:45:22;;;;;;;6.72;1.40;;;;;;;14.15;49.35;102134.13;10418808;28;20045;-82
2022/05/27 17:55:44;;;;;;;7.22;1.05;;;;;;;14.52;50.22;102134.34;10417267;28;20052;-83
2022/05/27 18:00:47;;;;;;;3.80;1.15;;;;;;;14.51;51.26;102133.47;10424494;28;20049;-83
2022/05/27 18:05:51;;;;;;;10.00;1.67;;;;;;;14.21;52.14;102133.44;10425974;28;20060;-82
2022/05/27 18:10:53;;;;;;;9.63;1.20;;;;;;;14.00;52.06;102124.13;10459010;28;20049;-83
2022/05/27 18:16:01;;;;;;;9.73;1.48;;;;;;;13.81;52.79;102127.88;10437701;28;20128;-83
2022/05/27 18:21:03;;;;;;;8.25;1.38;;;;;;;13.77;52.90;102136.38;10419301;28;20117;-83
2022/05/27 18:26:06;;;;;;;3.63;1.05;;;;;;;13.78;53.80;102136.41;10416909;28;20045;-81
2022/05/27 18:31:08;;;;;;;8.60;1.67;;;;;;;13.67;53.83;102147.25;10416129;28;20390;-84
2022/05/27 18:36:11;;;;;;;17.63;1.10;;;;;;;13.51;53.86;102151.03;10398051;28;20049;-82
2022/05/27 18:41:39;;;;;;;7.47;1.40;;;;;;;13.49;53.71;102151.88;10388179;28;20037;-83
2022/05/27 18:46:41;;;;;;;4.75;1.08;;;;;;;13.55;53.64;102148.59;10418709;28;20489;-82
2022/05/27 18:51:43;;;;;;;9.82;1.58;;;;;;;13.61;54.50;102148.81;10425177;28;20094;-83
2022/05/27 18:56:45;;;;;;;5.55;1.50;;;;;;;13.68;54.45;102141.25;10442102;28;20374;-81
2022/05/27 19:01:47;;;;;;;6.28;0.90;;;;;;;13.49;54.74;102138.06;10400604;28;20075;-84
2022/05/27 19:06:49;;;;;;;7.80;1.17;;;;;;;13.44;55.29;102137.03;10415721;28;20172;-82
2022/05/27 19:11:51;;;;;;;8.07;1.33;;;;;;;13.26;56.07;102143.28;10417522;28;20042;-83
2022/05/27 19:16:53;;;;;;;8.70;1.70;;;;;;;12.90;57.03;102143.75;10420099;28;20193;-83
2022/05/27 19:22:21;;;;;;;8.20;1.38;;;;;;;13.01;56.13;102142.41;10415922;28;20492;-84
2022/05/27 19:27:22;;;;;;;8.80;2.08;;;;;;;12.99;56.11;102144.06;10433590;28;20100;-82
2022/05/27 19:32:24;;;;;;;8.98;1.35;;;;;;;12.87;56.85;102142.75;10415838;28;20049;-82
2022/05/27 19:37:30;;;;;;;6.90;1.55;;;;;;;12.79;57.50;102147.63;10419275;28;20058;-84
2022/05/27 19:42:32;;;;;;;6.78;1.60;;;;;;;12.68;57.71;102142.06;10421189;28;20065;-83
2022/05/27 19:47:34;;;;;;;4.60;1.52;;;;;;;12.64;57.88;102140.22;10382096;28;20107;-80
2022/05/27 19:52:36;;;;;;;8.45;1.45;;;;;;;12.71;57.59;102149.97;10376567;28;20436;-81
2022/05/27 20:08:18;;;;;;;5.20;0.90;;;;;;;12.35;59.79;102140.84;10390869;28;20049;-81
2022/05/27 20:13:20;;;;;;;5.65;1.48;;;;;;;12.26;59.79;102148.25;10414568;28;20049;-81
2022/05/27 20:18:22;;;;;;;7.50;1.10;;;;;;;12.20;60.11;102142.84;10407082;28;20485;-81
2022/05/27 20:23:24;;;;;;;6.53;1.38;;;;;;;12.18;60.50;102144.47;10406086;28;20049;-81
2022/05/27 20:28:27;;;;;;;8.40;1.30;;;;;;;12.12;60.70;102149.41;10415679;28;20034;-80
2022/05/27 20:33:28;;;;;;;8.60;1.90;;;;;;;12.13;60.49;102143.44;10400844;28;20058;-81
2022/05/27 20:38:31;;;;;;;8.13;2.28;;;;;;;11.96;61.01;102148.75;10401516;28;20421;-80
2022/05/27 20:43:33;;;;;;;9.15;1.30;;;;;;;11.87;61.16;102153.59;10388070;28;20054;-81
2022/05/27 20:48:34;;;;;;;7.00;1.50;;;;;;;11.74;61.73;102152.19;10408942;28;20512;-80
2022/05/27 20:53:36;;;;;;;9.43;1.23;;;;;;;11.66;61.53;102148.41;10417976;28;20096;-81
2022/05/27 20:58:39;;;;;;;9.48;1.50;;;;;;;11.57;61.89;102159.25;10386366;28;20112;-81
2022/05/27 21:03:45;;;;;;;5.97;1.40;;;;;;;11.56;62.07;102142.84;10409663;28;20049;-81
2022/05/27 21:08:54;;;;;;;8.02;1.50;;;;;;;11.49;62.24;102150.28;10419750;28;20049;-79
2022/05/27 21:13:58;;;;;;;6.03;1.58;;;;;;;11.22;62.87;102145.69;10418952;28;20133;-81
2022/05/27 21:19:26;;;;;;;6.97;1.63;;;;;;;11.05;63.72;102138.13;10408261;28;20104;-81
2022/05/27 21:24:30;;;;;;;8.43;1.30;;;;;;;11.18;63.60;102139.53;10419948;28;20049;-80
2022/05/27 21:29:32;;;;;;;7.40;1.85;;;;;;;11.10;63.75;102136.63;10419510;28;20108;-81
2022/05/27 21:34:34;;;;;;;7.65;1.80;;;;;;;11.05;64.24;102130.41;10422447;28;20045;-81
2022/05/27 21:39:36;;;;;;;9.75;2.33;;;;;;;11.13;64.13;102120.41;10372787;28;20084;-80
2022/05/27 21:44:37;;;;;;;7.85;1.23;;;;;;;11.16;63.96;102119.66;10380666;28;20076;-81
2022/05/27 21:49:39;;;;;;;7.65;1.55;;;;;;;11.14;63.82;102116.13;10381313;28;20100;-80
2022/05/27 21:54:40;;;;;;;8.02;1.80;;;;;;;11.14;64.42;102110.94;10381226;28;20054;-80
2022/05/27 21:59:43;;;;;;;5.68;1.85;;;;;;;11.09;64.97;102113.38;10377785;28;20050;-79
2022/05/27 22:04:48;;;;;;;8.27;1.75;;;;;;;11.05;65.32;102116.59;10362764;28;20053;-80
2022/05/27 22:15:10;;;;;;;9.95;1.58;;;;;;;11.07;65.75;102110.69;10380515;28;20042;-79
2022/05/27 22:20:13;;;;;;;12.73;1.75;;;;;;;11.11;66.00;102111.72;10382839;28;20048;-80
2022/05/27 22:25:17;;;;;;;7.22;2.00;;;;;;;11.04;66.67;102100.25;10432501;28;20045;-80
2022/05/27 22:30:19;;;;;;;8.07;1.80;;;;;;;10.99;66.65;102104.31;10461043;28;20496;-80
2022/05/27 22:35:20;;;;;;;8.93;2.10;;;;;;;11.17;66.51;102086.16;10459570;28;20107;-80
2022/05/27 22:40:22;;;;;;;9.82;2.13;;;;;;;11.26;67.15;102093.44;10460128;28;20063;-79
2022/05/27 22:45:24;;;;;;;6.88;2.15;;;;;;;11.25;67.34;102079.63;10460894;28;20087;-80
2022/05/27 22:50:26;;;;;;;12.40;2.38;;;;;;;11.16;67.19;102083.53;10461517;28;20048;-80
2022/05/27 22:55:27;;;;;;;9.45;2.20;;;;;;;11.13;67.55;102075.69;10465951;28;20045;-80
2022/05/27 23:00:29;;;;;;;9.93;2.40;;;;;;;11.14;67.70;102059.38;10461040;28;20041;-79
2022/05/27 23:05:30;;;;;;;13.23;2.42;;;;;;;11.11;68.09;102070.44;10464747;28;20083;-80
2022/05/27 23:10:33;;;;;;;14.88;2.50;;;;;;;11.08;67.95;102060.88;10497057;28;20078;-79
2022/05/27 23:20:58;;;;;;;10.27;2.63;;;;;;;11.02;68.25;102050.31;10426552;28;20124;-81
2022/05/27 23:26:02;;;;;;;11.88;2.30;;;;;;;11.06;68.11;102043.59;10421225;28;20129;-80
2022/05/27 23:31:09;;;;;;;11.43;1.80;;;;;;;11.04;68.28;102040.94;10419994;28;20042;-81
2022/05/27 23:36:13;;;;;;;10.15;2.45;;;;;;;11.03;68.28;102041.75;10419983;28;20415;-81
2022/05/27 23:41:15;;;;;;;10.00;2.10;;;;;;;11.04;67.84;102033.22;10421090;28;20091;-80
2022/05/27 23:46:17;;;;;;;7.53;1.70;;;;;;;11.00;68.36;102023.56;10419095;28;20114;-81
2022/05/27 23:51:22;;;;;;;11.57;1.95;;;;;;;10.95;68.40;102025.09;10417914;28;20382;-81
2022/05/27 23:56:25;;;;;;;9.45;2.13;;;;;;;11.05;68.50;102013.44;10421798;28;20096;-81
